createdAt,value
2019-03-26T00:02:10.152Z,95.90
2019-03-26T00:04:38.956Z,96.00
2019-03-26T00:07:07.805Z,96.00
2019-03-26T00:09:36.718Z,96.00
2019-03-26T00:12:05.501Z,96.00
2019-03-26T00:14:34.344Z,96.40
2019-03-26T00:17:03.165Z,96.60
2019-03-26T00:19:32.076Z,96.40
2019-03-26T00:22:00.917Z,96.40
2019-03-26T00:24:29.693Z,96.40
2019-03-26T00:26:58.555Z,96.60
2019-03-26T00:29:27.481Z,96.70
2019-03-26T00:31:56.319Z,96.70
2019-03-26T00:34:25.131Z,97.00
2019-03-26T00:36:53.988Z,97.10
2019-03-26T00:39:22.847Z,97.20
2019-03-26T00:41:51.729Z,97.10
2019-03-26T00:44:20.561Z,97.40
2019-03-26T00:46:49.327Z,97.70
2019-03-26T00:49:18.136Z,97.40
2019-03-26T00:51:46.980Z,97.90
2019-03-26T00:54:15.830Z,98.00
2019-03-26T00:56:44.708Z,98.00
2019-03-26T00:59:13.514Z,98.30
2019-03-26T01:01:42.389Z,97.90
2019-03-26T01:04:11.279Z,98.70
2019-03-26T01:06:40.281Z,98.40
2019-03-26T01:09:09.103Z,98.30
2019-03-26T01:11:38.029Z,98.70
2019-03-26T01:14:06.907Z,98.90
2019-03-26T01:16:35.815Z,99.00
2019-03-26T01:19:04.646Z,99.10
2019-03-26T01:21:33.511Z,99.30
2019-03-26T01:24:02.333Z,99.40
2019-03-26T01:26:31.189Z,99.50
2019-03-26T01:29:00.020Z,99.70
2019-03-26T01:31:28.908Z,99.60
2019-03-26T01:33:57.783Z,99.90
2019-03-26T01:36:26.659Z,99.90
2019-03-26T01:38:55.533Z,99.90
2019-03-26T01:41:24.349Z,99.90
2019-03-26T01:43:53.248Z,99.90
2019-03-26T01:46:22.108Z,99.90
2019-03-26T01:48:50.967Z,99.90
2019-03-26T01:51:19.779Z,99.90
2019-03-26T01:53:48.698Z,99.90
2019-03-26T01:56:17.544Z,99.90
2019-03-26T01:58:46.459Z,99.90
2019-03-26T02:01:15.304Z,99.90
2019-03-26T02:03:44.135Z,99.90
2019-03-26T02:06:12.964Z,99.90
2019-03-26T02:08:41.797Z,99.90
2019-03-26T02:11:10.616Z,99.90
2019-03-26T02:13:39.539Z,99.90
2019-03-26T02:16:08.395Z,99.90
2019-03-26T02:18:37.226Z,99.90
2019-03-26T02:21:06.167Z,99.90
2019-03-26T02:23:34.969Z,99.90
2019-03-26T02:26:03.776Z,99.90
2019-03-26T02:28:32.780Z,99.90
2019-03-26T02:31:01.639Z,99.90
2019-03-26T02:33:30.468Z,99.90
2019-03-26T02:35:59.304Z,99.90
2019-03-26T02:38:28.159Z,99.90
2019-03-26T02:40:57.019Z,99.90
2019-03-26T02:43:25.908Z,99.90
2019-03-26T02:45:54.696Z,99.90
2019-03-26T02:48:23.508Z,99.90
2019-03-26T02:50:52.522Z,99.90
2019-03-26T02:53:21.308Z,99.90
2019-03-26T02:55:50.184Z,99.90
2019-03-26T02:58:19.036Z,99.90
2019-03-26T03:00:47.865Z,99.90
2019-03-26T03:03:16.774Z,99.90
2019-03-26T03:05:45.593Z,99.90
2019-03-26T03:08:14.507Z,99.90
2019-03-26T03:10:43.453Z,99.90
2019-03-26T03:13:12.379Z,99.90
2019-03-26T03:15:41.255Z,99.90
2019-03-26T03:18:10.139Z,99.90
2019-03-26T03:20:38.956Z,99.90
2019-03-26T03:23:07.852Z,99.90
2019-03-26T03:25:36.955Z,99.90
2019-03-26T03:28:05.770Z,99.90
2019-03-26T03:30:34.637Z,99.90
2019-03-26T03:33:07.405Z,99.90
2019-03-26T03:35:51.147Z,99.90
2019-03-26T03:38:06.713Z,99.90
2019-03-26T03:40:35.592Z,99.90
2019-03-26T03:43:04.432Z,99.90
2019-03-26T03:45:34.597Z,99.90
2019-03-26T03:48:03.889Z,99.90
2019-03-26T03:50:33.704Z,99.90
2019-03-26T03:53:02.649Z,99.90
2019-03-26T03:55:31.648Z,99.90
2019-03-26T03:58:01.193Z,99.90
2019-03-26T04:00:34.764Z,99.90
2019-03-26T04:03:04.763Z,99.90
2019-03-26T04:05:34.125Z,99.90
2019-03-26T04:08:02.941Z,99.90
2019-03-26T04:10:31.789Z,99.90
2019-03-26T04:13:00.662Z,99.90
2019-03-26T04:15:29.521Z,99.90
2019-03-26T04:17:58.373Z,99.90
2019-03-26T04:20:27.189Z,99.90
2019-03-26T04:22:56.061Z,99.90
2019-03-26T04:25:24.880Z,99.90
2019-03-26T04:27:53.773Z,99.90
2019-03-26T04:30:30.151Z,99.90
2019-03-26T04:32:59.042Z,99.90
2019-03-26T04:35:27.853Z,99.90
2019-03-26T04:37:56.719Z,99.90
2019-03-26T04:40:25.591Z,99.90
2019-03-26T04:42:54.439Z,99.90
2019-03-26T04:45:23.327Z,99.90
2019-03-26T04:47:52.163Z,99.90
2019-03-26T04:50:21.068Z,99.90
2019-03-26T04:52:49.960Z,99.90
2019-03-26T04:55:18.864Z,99.90
2019-03-26T04:57:47.810Z,99.90
2019-03-26T05:00:17.148Z,99.90
2019-03-26T05:02:45.954Z,99.90
2019-03-26T05:05:14.851Z,99.90
2019-03-26T05:07:43.750Z,99.90
2019-03-26T05:10:12.699Z,99.90
2019-03-26T05:12:41.500Z,99.90
2019-03-26T05:15:10.572Z,99.90
2019-03-26T05:17:39.467Z,99.90
2019-03-26T05:20:08.455Z,99.90
2019-03-26T05:22:37.308Z,99.90
2019-03-26T05:25:07.715Z,99.90
2019-03-26T05:27:45.200Z,99.90
2019-03-26T05:30:08.588Z,99.90
2019-03-26T05:32:37.407Z,99.90
2019-03-26T05:35:06.879Z,99.90
2019-03-26T05:37:35.734Z,99.90
2019-03-26T05:40:06.777Z,99.90
2019-03-26T05:42:35.671Z,99.90
2019-03-26T05:45:06.709Z,99.90
2019-03-26T05:47:35.551Z,99.90
2019-03-26T05:50:06.311Z,99.90
2019-03-26T05:52:35.140Z,99.90
2019-03-26T05:55:04.735Z,99.90
2019-03-26T05:57:33.533Z,99.10
2019-03-26T06:00:02.379Z,98.60
2019-03-26T06:02:31.256Z,97.70
2019-03-26T06:05:00.338Z,97.80
2019-03-26T06:07:31.306Z,96.90
2019-03-26T06:09:59.648Z,97.10
2019-03-26T06:12:28.506Z,97.10
2019-03-26T06:14:57.314Z,97.20
2019-03-26T06:17:26.195Z,97.00
2019-03-26T06:19:55.026Z,96.70
2019-03-26T06:22:23.944Z,96.40
2019-03-26T06:24:52.803Z,96.60
2019-03-26T06:27:21.706Z,95.70
2019-03-26T06:29:50.557Z,96.10
2019-03-26T06:32:19.407Z,96.10
2019-03-26T06:34:48.288Z,96.30
2019-03-26T06:37:18.322Z,96.10
2019-03-26T06:39:47.271Z,96.40
2019-03-26T06:42:16.148Z,96.40
2019-03-26T06:44:44.994Z,96.60
2019-03-26T06:47:13.860Z,96.20
2019-03-26T06:49:42.675Z,96.10
2019-03-26T06:52:11.548Z,96.40
2019-03-26T06:54:40.376Z,95.90
2019-03-26T06:57:09.227Z,95.70
2019-03-26T06:59:38.084Z,95.70
2019-03-26T07:02:06.946Z,94.50
2019-03-26T07:04:35.920Z,95.20
2019-03-26T07:07:04.762Z,95.40
2019-03-26T07:09:33.599Z,95.10
2019-03-26T07:12:02.474Z,95.30
2019-03-26T07:14:31.368Z,95.50
2019-03-26T07:17:00.233Z,95.00
2019-03-26T07:19:29.147Z,94.90
2019-03-26T07:21:57.956Z,94.60
2019-03-26T07:24:26.831Z,94.90
2019-03-26T07:26:55.623Z,95.10
2019-03-26T07:29:24.539Z,94.90
2019-03-26T07:31:53.378Z,94.90
2019-03-26T07:34:22.235Z,94.10
2019-03-26T07:36:51.068Z,93.90
2019-03-26T07:39:19.940Z,93.80
2019-03-26T07:41:48.771Z,94.10
2019-03-26T07:44:17.608Z,93.10
2019-03-26T07:46:46.512Z,93.00
2019-03-26T07:49:15.331Z,92.90
2019-03-26T07:51:44.197Z,93.30
2019-03-26T07:54:13.015Z,91.50
2019-03-26T07:56:41.879Z,91.60
2019-03-26T07:59:10.739Z,91.30
2019-03-26T08:01:39.581Z,90.40
2019-03-26T08:04:08.398Z,88.50
2019-03-26T08:06:37.295Z,84.00
2019-03-26T08:09:07.229Z,83.00
2019-03-26T08:11:36.051Z,82.40
2019-03-26T08:14:05.436Z,82.10
2019-03-26T08:16:34.302Z,83.60
2019-03-26T08:19:03.114Z,82.80
2019-03-26T08:21:31.978Z,81.70
2019-03-26T08:24:00.794Z,81.00
2019-03-26T08:26:29.663Z,82.50
2019-03-26T08:29:00.907Z,82.60
2019-03-26T08:31:29.107Z,84.30
2019-03-26T08:33:57.960Z,84.60
2019-03-26T08:36:26.755Z,85.00
2019-03-26T08:38:55.580Z,85.00
2019-03-26T08:41:24.444Z,81.80
2019-03-26T08:43:53.347Z,78.90
2019-03-26T08:46:22.180Z,77.80
2019-03-26T08:48:51.084Z,79.00
2019-03-26T08:51:19.933Z,76.30
2019-03-26T08:53:48.830Z,77.60
2019-03-26T08:56:17.672Z,77.00
2019-03-26T08:58:46.578Z,77.20
2019-03-26T09:01:15.390Z,77.60
2019-03-26T09:03:44.213Z,79.00
2019-03-26T09:06:13.044Z,68.40
2019-03-26T09:08:41.912Z,64.80
2019-03-26T09:11:10.735Z,58.40
2019-03-26T09:13:39.606Z,54.30
2019-03-26T09:16:08.440Z,55.70
2019-03-26T09:18:37.423Z,56.30
2019-03-26T09:21:06.240Z,57.10
2019-03-26T09:23:35.255Z,59.10
2019-03-26T09:26:04.183Z,56.50
2019-03-26T09:28:33.083Z,52.40
2019-03-26T09:31:01.983Z,51.50
2019-03-26T09:33:30.924Z,50.50
2019-03-26T09:35:59.743Z,50.10
2019-03-26T09:38:38.342Z,49.60
2019-03-26T09:40:59.128Z,51.00
2019-03-26T09:43:27.933Z,51.80
2019-03-26T09:45:56.824Z,51.70
2019-03-26T09:48:25.776Z,52.10
2019-03-26T09:50:54.671Z,54.10
2019-03-26T09:53:23.523Z,53.70
2019-03-26T09:55:52.414Z,55.70
2019-03-26T09:58:21.330Z,56.00
2019-03-26T10:00:50.461Z,55.20
2019-03-26T10:03:19.492Z,54.10
2019-03-26T10:05:51.245Z,54.10
2019-03-26T10:08:20.119Z,54.20
2019-03-26T10:10:49.034Z,54.90
2019-03-26T10:13:17.894Z,55.40
2019-03-26T10:15:46.740Z,56.10
2019-03-26T10:18:15.602Z,55.60
2019-03-26T10:20:44.429Z,55.30
2019-03-26T10:23:13.361Z,53.90
2019-03-26T10:25:42.213Z,50.50
2019-03-26T10:28:11.064Z,49.90
2019-03-26T10:30:40.714Z,50.40
2019-03-26T10:33:10.047Z,52.20
2019-03-26T10:35:38.911Z,52.10
2019-03-26T10:38:08.004Z,51.30
2019-03-26T10:40:40.483Z,50.40
2019-03-26T10:43:09.424Z,50.80
2019-03-26T10:45:38.224Z,52.20
2019-03-26T10:48:07.064Z,53.20
2019-03-26T10:50:35.905Z,52.70
2019-03-26T10:53:04.925Z,52.10
2019-03-26T10:55:33.732Z,50.50
2019-03-26T10:58:02.775Z,50.20
2019-03-26T11:00:31.699Z,48.80
2019-03-26T11:03:00.645Z,48.10
2019-03-26T11:05:29.518Z,46.80
2019-03-26T11:07:58.339Z,46.60
2019-03-26T11:10:27.219Z,45.00
2019-03-26T11:12:56.317Z,45.60
2019-03-26T11:15:25.224Z,46.40
2019-03-26T11:17:54.144Z,46.40
2019-03-26T11:20:23.071Z,48.50
2019-03-26T11:22:51.974Z,48.20
2019-03-26T11:25:20.923Z,47.80
2019-03-26T11:27:49.708Z,47.50
2019-03-26T11:30:18.996Z,48.20
2019-03-26T11:32:47.892Z,47.20
2019-03-26T11:35:16.781Z,45.00
2019-03-26T11:37:48.530Z,44.80
2019-03-26T11:40:17.409Z,44.10
2019-03-26T11:42:46.312Z,43.80
2019-03-26T11:45:16.964Z,43.20
2019-03-26T11:47:45.836Z,44.40
2019-03-26T11:50:15.419Z,44.60
2019-03-26T11:52:44.278Z,43.90
2019-03-26T11:55:13.157Z,43.00
2019-03-26T11:57:42.036Z,44.20
2019-03-26T12:00:14.809Z,42.50
2019-03-26T12:02:43.684Z,41.50
2019-03-26T12:05:12.996Z,40.70
2019-03-26T12:07:42.997Z,41.30
2019-03-26T12:10:12.369Z,40.80
2019-03-26T12:12:41.244Z,41.20
2019-03-26T12:15:10.503Z,41.60
2019-03-26T12:17:39.351Z,41.50
2019-03-26T12:20:08.744Z,40.30
2019-03-26T12:22:37.594Z,40.00
2019-03-26T12:25:07.460Z,39.50
2019-03-26T12:27:36.985Z,40.30
2019-03-26T12:30:07.942Z,39.30
2019-03-26T12:32:36.804Z,39.00
2019-03-26T12:35:08.173Z,39.60
2019-03-26T12:37:37.051Z,38.80
2019-03-26T12:40:07.322Z,39.60
2019-03-26T12:42:36.194Z,39.80
2019-03-26T12:45:07.384Z,39.30
2019-03-26T12:47:36.523Z,40.10
2019-03-26T12:50:07.424Z,39.30
2019-03-26T12:52:36.265Z,38.50
2019-03-26T12:55:06.294Z,38.70
2019-03-26T12:57:35.158Z,38.60
2019-03-26T13:00:05.288Z,39.10
2019-03-26T13:02:35.904Z,39.10
2019-03-26T13:05:08.994Z,40.10
2019-03-26T13:07:37.901Z,40.10
2019-03-26T13:10:13.987Z,41.00
2019-03-26T13:12:38.633Z,39.00
2019-03-26T13:15:08.192Z,36.50
2019-03-26T13:17:37.154Z,35.30
2019-03-26T13:20:07.417Z,35.10
2019-03-26T13:22:36.319Z,35.30
2019-03-26T13:25:06.688Z,35.80
2019-03-26T13:27:35.590Z,34.10
2019-03-26T13:30:06.248Z,34.60
2019-03-26T13:32:35.113Z,35.80
2019-03-26T13:35:08.441Z,35.60
2019-03-26T13:37:37.297Z,34.50
2019-03-26T13:40:06.676Z,34.00
2019-03-26T13:42:35.484Z,32.20
2019-03-26T13:45:05.703Z,31.20
2019-03-26T13:47:34.609Z,30.80
2019-03-26T13:50:04.481Z,30.70
2019-03-26T13:52:33.357Z,30.10
2019-03-26T13:55:02.281Z,30.00
2019-03-26T13:57:39.655Z,30.60
2019-03-26T14:00:09.354Z,31.40
2019-03-26T14:02:38.219Z,33.90
2019-03-26T14:05:15.629Z,34.90
2019-03-26T14:07:44.573Z,34.90
2019-03-26T14:10:13.648Z,32.90
2019-03-26T14:12:42.465Z,31.40
2019-03-26T14:15:11.338Z,29.60
2019-03-26T14:17:40.234Z,29.30
2019-03-26T14:20:09.200Z,27.70
2019-03-26T14:22:38.103Z,27.50
2019-03-26T14:25:07.127Z,29.10
2019-03-26T14:27:36.053Z,30.00
2019-03-26T14:30:07.869Z,30.90
2019-03-26T14:32:36.763Z,33.90
2019-03-26T14:35:07.123Z,35.60
2019-03-26T14:37:35.978Z,37.00
2019-03-26T14:40:06.605Z,37.10
2019-03-26T14:42:35.489Z,38.50
2019-03-26T14:45:07.078Z,38.50
2019-03-26T14:47:35.891Z,38.70
2019-03-26T14:50:07.819Z,39.20
2019-03-26T14:52:36.675Z,39.60
2019-03-26T14:55:07.216Z,40.10
2019-03-26T14:57:36.156Z,40.20
2019-03-26T15:00:06.665Z,41.50
2019-03-26T15:02:35.578Z,40.80
2019-03-26T15:05:05.954Z,40.70
2019-03-26T15:07:34.874Z,40.80
2019-03-26T15:10:05.341Z,40.70
2019-03-26T15:12:34.210Z,41.70
2019-03-26T15:15:03.115Z,41.20
2019-03-26T15:17:31.951Z,41.50
2019-03-26T15:20:00.843Z,41.30
2019-03-26T15:22:29.715Z,42.10
2019-03-26T15:24:59.582Z,41.70
2019-03-26T15:27:28.771Z,42.00
2019-03-26T15:29:57.593Z,42.00
2019-03-26T15:32:26.459Z,42.30
2019-03-26T15:34:55.534Z,43.00
2019-03-26T15:37:24.374Z,43.20
2019-03-26T15:39:53.263Z,43.60
2019-03-26T15:42:22.159Z,43.50
2019-03-26T15:44:50.972Z,43.40
2019-03-26T15:47:19.819Z,43.90
2019-03-26T15:49:48.672Z,44.20
2019-03-26T15:52:17.564Z,44.70
2019-03-26T15:54:46.381Z,45.10
2019-03-26T15:57:15.294Z,45.60
2019-03-26T15:59:44.201Z,46.40
2019-03-26T16:02:12.973Z,45.60
2019-03-26T16:04:41.805Z,46.10
2019-03-26T16:07:10.736Z,46.10
2019-03-26T16:09:39.594Z,46.40
2019-03-26T16:12:08.432Z,46.20
2019-03-26T16:14:37.277Z,46.40
2019-03-26T16:17:06.104Z,47.00
2019-03-26T16:19:36.606Z,47.10
2019-03-26T16:22:05.492Z,48.00
2019-03-26T16:24:34.332Z,48.80
2019-03-26T16:27:03.125Z,48.60
2019-03-26T16:29:31.985Z,48.70
2019-03-26T16:32:00.863Z,50.10
2019-03-26T16:34:29.764Z,50.20
2019-03-26T16:36:59.982Z,51.00
2019-03-26T16:39:29.204Z,51.30
2019-03-26T16:41:58.099Z,52.20
2019-03-26T16:44:26.937Z,51.80
2019-03-26T16:46:55.793Z,52.50
2019-03-26T16:49:24.684Z,52.50
2019-03-26T16:51:53.532Z,52.80
2019-03-26T16:54:22.353Z,53.50
2019-03-26T16:56:51.245Z,54.20
2019-03-26T16:59:20.167Z,54.80
2019-03-26T17:01:49.096Z,54.70
2019-03-26T17:04:17.941Z,55.10
2019-03-26T17:06:46.884Z,56.40
2019-03-26T17:09:15.724Z,56.30
2019-03-26T17:11:44.602Z,56.90
2019-03-26T17:14:13.408Z,58.00
2019-03-26T17:16:42.338Z,58.60
2019-03-26T17:19:11.292Z,59.80
2019-03-26T17:21:40.222Z,60.70
2019-03-26T17:24:09.078Z,60.10
2019-03-26T17:26:38.000Z,60.40
2019-03-26T17:29:07.092Z,60.80
2019-03-26T17:31:36.088Z,61.50
2019-03-26T17:34:04.894Z,61.00
2019-03-26T17:36:33.793Z,61.30
2019-03-26T17:39:02.932Z,62.80
2019-03-26T17:41:31.823Z,62.60
2019-03-26T17:44:00.687Z,63.00
2019-03-26T17:46:29.664Z,64.00
2019-03-26T17:48:58.500Z,64.30
2019-03-26T17:51:27.469Z,65.40
2019-03-26T17:53:56.531Z,65.90
2019-03-26T17:56:25.394Z,66.60
2019-03-26T17:58:54.299Z,67.00
2019-03-26T18:01:23.195Z,66.80
2019-03-26T18:03:52.479Z,68.00
2019-03-26T18:06:21.364Z,68.20
2019-03-26T18:08:50.186Z,68.80
2019-03-26T18:11:18.992Z,67.20
2019-03-26T18:13:48.030Z,68.00
2019-03-26T18:16:16.868Z,68.00
2019-03-26T18:18:45.858Z,67.80
2019-03-26T18:21:14.784Z,68.00
2019-03-26T18:23:43.666Z,66.80
2019-03-26T18:26:12.543Z,66.80
2019-03-26T18:28:41.365Z,67.00
2019-03-26T18:31:10.408Z,66.60
2019-03-26T18:33:42.690Z,66.30
2019-03-26T18:36:11.545Z,66.40
2019-03-26T18:38:40.463Z,65.90
2019-03-26T18:41:09.331Z,66.00
2019-03-26T18:43:38.188Z,67.10
2019-03-26T18:46:07.266Z,66.60
2019-03-26T18:48:36.248Z,67.10
2019-03-26T18:51:05.048Z,67.00
2019-03-26T18:53:33.952Z,67.00
2019-03-26T18:56:02.896Z,67.40
2019-03-26T18:58:31.838Z,67.20
2019-03-26T19:01:00.721Z,67.00
2019-03-26T19:03:29.642Z,66.60
2019-03-26T19:05:58.503Z,68.10
2019-03-26T19:08:27.432Z,67.00
2019-03-26T19:10:56.359Z,67.10
2019-03-26T19:13:25.241Z,67.60
2019-03-26T19:15:54.144Z,66.40
2019-03-26T19:18:23.082Z,66.00
2019-03-26T19:21:01.279Z,65.10
2019-03-26T19:23:22.297Z,65.50
2019-03-26T19:25:51.123Z,65.70
2019-03-26T19:28:20.007Z,66.10
2019-03-26T19:30:48.864Z,66.10
2019-03-26T19:33:17.925Z,66.70
2019-03-26T19:35:46.758Z,65.80
2019-03-26T19:38:15.600Z,65.10
2019-03-26T19:40:44.472Z,65.00
2019-03-26T19:43:13.452Z,64.80
2019-03-26T19:45:42.277Z,65.00
2019-03-26T19:48:11.203Z,64.70
2019-03-26T19:50:40.009Z,63.70
2019-03-26T19:53:09.013Z,65.10
2019-03-26T19:55:37.848Z,64.90
2019-03-26T19:58:06.764Z,65.10
2019-03-26T20:00:35.558Z,65.70
2019-03-26T20:03:05.958Z,66.00
2019-03-26T20:05:35.585Z,65.90
2019-03-26T20:08:06.138Z,65.90
2019-03-26T20:10:35.101Z,65.90
2019-03-26T20:13:04.194Z,65.10
2019-03-26T20:15:33.149Z,64.50
2019-03-26T20:18:02.005Z,64.10
2019-03-26T20:20:31.082Z,64.50
2019-03-26T20:22:59.899Z,65.10
2019-03-26T20:25:28.768Z,64.80
2019-03-26T20:27:57.624Z,64.60
2019-03-26T20:30:27.981Z,67.10
2019-03-26T20:32:56.864Z,67.40
2019-03-26T20:35:25.731Z,67.40
2019-03-26T20:37:54.753Z,66.60
2019-03-26T20:40:23.719Z,67.00
2019-03-26T20:42:52.638Z,68.20
2019-03-26T20:45:21.658Z,66.30
2019-03-26T20:47:50.565Z,65.30
2019-03-26T20:50:20.100Z,65.40
2019-03-26T20:52:49.025Z,65.00
2019-03-26T20:55:20.884Z,64.70
2019-03-26T20:57:49.953Z,64.90
2019-03-26T21:00:27.612Z,65.10
2019-03-26T21:02:56.569Z,64.70
2019-03-26T21:05:25.425Z,65.10
2019-03-26T21:07:54.441Z,65.50
2019-03-26T21:10:23.208Z,65.70
2019-03-26T21:12:52.081Z,65.80
2019-03-26T21:15:20.973Z,65.60
2019-03-26T21:17:49.878Z,65.80
2019-03-26T21:20:18.723Z,65.40
2019-03-26T21:22:47.527Z,66.80
2019-03-26T21:25:16.445Z,67.10
2019-03-26T21:27:45.548Z,66.50
2019-03-26T21:30:16.163Z,66.90
2019-03-26T21:32:45.232Z,66.60
2019-03-26T21:35:14.845Z,67.40
2019-03-26T21:37:43.691Z,68.70
2019-03-26T21:40:13.735Z,67.40
2019-03-26T21:42:42.634Z,67.00
2019-03-26T21:45:12.511Z,66.20
2019-03-26T21:47:41.607Z,65.10
2019-03-26T21:50:10.848Z,65.20
2019-03-26T21:52:39.716Z,65.30
2019-03-26T21:55:13.091Z,66.40
2019-03-26T21:57:41.158Z,68.30
2019-03-26T22:00:10.563Z,68.10
2019-03-26T22:02:39.412Z,67.20
2019-03-26T22:05:08.874Z,66.90
2019-03-26T22:07:37.720Z,66.60
2019-03-26T22:10:08.204Z,65.70
2019-03-26T22:12:37.066Z,65.70
2019-03-26T22:15:11.582Z,66.10
2019-03-26T22:17:40.539Z,65.90
2019-03-26T22:20:10.107Z,67.00
2019-03-26T22:22:38.923Z,67.40
2019-03-26T22:25:10.171Z,67.80
2019-03-26T22:27:39.199Z,67.90
2019-03-26T22:30:10.511Z,68.60
2019-03-26T22:32:39.372Z,68.50
2019-03-26T22:35:08.708Z,69.90
2019-03-26T22:37:37.604Z,69.50
2019-03-26T22:40:07.707Z,70.00
2019-03-26T22:42:36.562Z,72.00
2019-03-26T22:45:09.492Z,71.60
2019-03-26T22:47:39.796Z,72.40
2019-03-26T22:50:09.738Z,71.40
2019-03-26T22:52:38.531Z,71.20
2019-03-26T22:55:09.683Z,72.40
2019-03-26T22:57:38.742Z,73.70
2019-03-26T23:00:13.173Z,74.60
2019-03-26T23:02:42.119Z,73.90
2019-03-26T23:05:12.483Z,73.70
2019-03-26T23:07:41.375Z,72.80
2019-03-26T23:10:11.041Z,72.70
2019-03-26T23:12:39.924Z,72.70
2019-03-26T23:15:17.466Z,73.20
2019-03-26T23:17:46.394Z,73.90
2019-03-26T23:20:15.359Z,74.30
2019-03-26T23:22:44.300Z,74.70
2019-03-26T23:25:13.551Z,74.70
2019-03-26T23:27:42.427Z,74.50
2019-03-26T23:30:12.032Z,75.80
2019-03-26T23:32:40.859Z,75.80
2019-03-26T23:35:10.064Z,75.50
2019-03-26T23:37:38.906Z,73.90
2019-03-26T23:40:08.007Z,74.30
2019-03-26T23:42:37.309Z,74.20
2019-03-26T23:45:08.389Z,75.30
2019-03-26T23:47:37.310Z,74.70
2019-03-26T23:50:08.614Z,74.90
2019-03-26T23:52:37.603Z,75.00
2019-03-26T23:55:08.780Z,75.30
2019-03-26T23:57:37.827Z,75.60
